Time;durP1;ratioP1;P1;durP2;ratioP2;P2;SDS_P1;SDS_P2;PMS_P1;PMS_P2;Temp;Humidity;BMP_temperature;BMP_pressure;BME280_temperature;BME280_humidity;BME280_pressure;Samples;Min_cycle;Max_cycle;Signal;HPM_P1;HPM_P2
2024/01/06 00:00:37;;;;;;;27.20;18.67;;;2.60;99.90;;;;;;5058613;28;20484;-73
2024/01/06 00:03:02;;;;;;;26.27;18.85;;;2.60;99.90;;;;;;5074885;28;20062;-74
2024/01/06 00:05:28;;;;;;;27.02;19.45;;;2.60;99.90;;;;;;5054842;28;20088;-73
2024/01/06 00:07:54;;;;;;;27.98;19.88;;;2.60;99.90;;;;;;5054999;28;20033;-73
2024/01/06 00:10:20;;;;;;;27.73;20.02;;;2.80;99.90;;;;;;5054787;28;20080;-73
2024/01/06 00:12:45;;;;;;;29.20;20.40;;;2.60;99.90;;;;;;5054725;28;20119;-74
2024/01/06 00:15:11;;;;;;;31.70;22.13;;;2.50;99.90;;;;;;5055006;28;20036;-73
2024/01/06 00:17:37;;;;;;;29.27;21.73;;;2.50;99.90;;;;;;5054527;28;20538;-73
2024/01/06 00:20:04;;;;;;;35.50;23.13;;;2.40;99.90;;;;;;5054778;28;20051;-67
2024/01/06 00:22:30;;;;;;;30.30;21.58;;;2.40;99.90;;;;;;5038383;28;20067;-67
2024/01/06 00:24:56;;;;;;;30.45;21.60;;;2.40;99.90;;;;;;5021634;28;20040;-67
2024/01/06 00:27:21;;;;;;;31.05;22.40;;;2.30;99.90;;;;;;5054829;28;20048;-67
2024/01/06 00:29:47;;;;;;;33.05;22.85;;;2.30;99.90;;;;;;5038286;28;20400;-67
2024/01/06 00:32:13;;;;;;;36.70;24.30;;;2.40;99.90;;;;;;5054692;28;20045;-67
2024/01/06 00:34:39;;;;;;;33.70;24.30;;;2.30;99.90;;;;;;5054506;28;20098;-68
2024/01/06 00:37:04;;;;;;;35.47;24.15;;;2.30;99.90;;;;;;5054556;28;20119;-68
2024/01/06 00:39:30;;;;;;;34.55;24.40;;;2.30;99.90;;;;;;5054573;28;20067;-68
2024/01/06 00:41:56;;;;;;;34.83;24.50;;;2.30;99.90;;;;;;5054457;28;20126;-68
2024/01/06 00:44:22;;;;;;;36.63;24.95;;;2.30;99.90;;;;;;5037712;28;20040;-67
2024/01/06 00:46:47;;;;;;;36.42;25.13;;;2.30;99.90;;;;;;5037763;28;20055;-67
2024/01/06 00:49:13;;;;;;;36.05;24.88;;;2.30;99.90;;;;;;5054595;28;20045;-68
2024/01/06 00:51:39;;;;;;;38.03;26.90;;;2.30;99.90;;;;;;5054832;28;20041;-68
2024/01/06 00:54:04;;;;;;;37.10;26.48;;;2.30;99.90;;;;;;5054249;28;20047;-68
2024/01/06 00:56:30;;;;;;;35.58;24.40;;;2.20;99.90;;;;;;5039282;28;20037;-68
2024/01/06 00:58:56;;;;;;;37.83;25.83;;;2.30;99.90;;;;;;5041445;28;20044;-68
2024/01/06 01:01:22;;;;;;;40.55;27.05;;;2.20;99.90;;;;;;5058061;28;20063;-69
2024/01/06 01:03:47;;;;;;;39.28;27.27;;;2.20;99.90;;;;;;5057980;28;20036;-68
2024/01/06 01:06:13;;;;;;;39.97;26.73;;;2.20;99.90;;;;;;5058312;28;20048;-68
2024/01/06 01:08:39;;;;;;;38.75;27.75;;;2.20;99.90;;;;;;5041209;28;20475;-68
2024/01/06 01:11:05;;;;;;;40.17;27.70;;;2.20;99.90;;;;;;5041113;28;20041;-68
2024/01/06 01:13:31;;;;;;;39.40;26.63;;;2.20;99.90;;;;;;5057792;28;20037;-68
2024/01/06 01:15:57;;;;;;;40.80;27.73;;;2.20;99.90;;;;;;5041155;28;20052;-68
2024/01/06 01:18:22;;;;;;;42.83;29.15;;;2.10;99.90;;;;;;5057884;28;20044;-68
2024/01/06 01:20:48;;;;;;;40.90;27.67;;;2.10;99.90;;;;;;5041192;28;20046;-68
2024/01/06 01:23:14;;;;;;;42.65;27.77;;;2.20;99.90;;;;;;5041503;28;20194;-68
2024/01/06 01:25:40;;;;;;;41.70;28.35;;;2.10;99.90;;;;;;5057677;28;20093;-68
2024/01/06 01:28:05;;;;;;;43.80;30.05;;;2.10;99.90;;;;;;5024998;28;20040;-69
2024/01/06 01:30:32;;;;;;;41.45;27.67;;;2.10;99.90;;;;;;5041351;28;20040;-68
2024/01/06 01:32:58;;;;;;;43.10;28.92;;;2.10;99.90;;;;;;5057863;28;20106;-68
2024/01/06 01:35:24;;;;;;;40.30;27.40;;;2.10;99.90;;;;;;5041019;28;20094;-68
2024/01/06 01:37:50;;;;;;;38.33;26.67;;;2.10;99.90;;;;;;5040568;28;20041;-68
2024/01/06 01:40:15;;;;;;;35.13;24.58;;;2.00;99.90;;;;;;5057379;28;20045;-68
2024/01/06 01:42:43;;;;;;;39.03;25.65;;;2.00;99.90;;;;;;5057400;28;20119;-68
2024/01/06 01:45:09;;;;;;;34.15;24.33;;;2.10;99.90;;;;;;5057342;28;20051;-68
2024/01/06 01:47:35;;;;;;;35.60;24.27;;;2.00;99.90;;;;;;5057661;28;20435;-68
2024/01/06 01:50:02;;;;;;;37.70;24.95;;;2.00;99.90;;;;;;5024312;28;20052;-68
2024/01/06 01:52:28;;;;;;;35.17;24.45;;;2.00;99.90;;;;;;5073946;28;20083;-68
2024/01/06 01:54:54;;;;;;;34.70;23.30;;;2.10;99.90;;;;;;5040501;28;20462;-68
2024/01/06 01:57:23;;;;;;;33.22;22.52;;;2.00;99.90;;;;;;5040535;28;20036;-68
2024/01/06 01:59:49;;;;;;;35.60;24.15;;;2.00;99.90;;;;;;5056907;28;20058;-68
2024/01/06 02:02:16;;;;;;;34.83;23.90;;;2.00;99.90;;;;;;5040551;28;20047;-68
2024/01/06 02:04:44;;;;;;;37.15;25.13;;;2.00;99.90;;;;;;5064802;28;20099;-68
2024/01/06 02:07:10;;;;;;;36.70;24.55;;;2.00;99.90;;;;;;5076547;28;20036;-68
2024/01/06 02:09:36;;;;;;;35.97;24.10;;;2.00;99.90;;;;;;5059595;28;20069;-68
2024/01/06 02:12:02;;;;;;;37.70;25.05;;;2.00;99.90;;;;;;5060674;28;20119;-68
2024/01/06 02:14:28;;;;;;;32.15;21.75;;;2.00;99.90;;;;;;5060270;28;20043;-67
2024/01/06 02:16:54;;;;;;;31.90;23.17;;;2.00;99.90;;;;;;5059772;28;20055;-68
2024/01/06 02:19:20;;;;;;;34.17;22.75;;;1.90;99.90;;;;;;5060076;28;20051;-68
2024/01/06 02:21:55;;;;;;;34.67;23.80;;;1.90;99.90;;;;;;5060047;28;20063;-67
2024/01/06 02:24:21;;;;;;;34.22;23.25;;;1.90;99.90;;;;;;5059909;28;20129;-68
2024/01/06 02:26:47;;;;;;;35.67;23.70;;;1.80;99.90;;;;;;5060075;28;20043;-68
2024/01/06 02:29:12;;;;;;;37.45;24.90;;;1.80;99.90;;;;;;5060285;28;20044;-68
2024/01/06 02:31:38;;;;;;;41.00;26.90;;;1.80;99.90;;;;;;5043610;28;20048;-68
2024/01/06 02:34:04;;;;;;;39.40;25.92;;;1.80;99.90;;;;;;5043153;28;20044;-68
2024/01/06 02:36:30;;;;;;;38.13;25.52;;;1.80;99.90;;;;;;5076459;28;20051;-68
2024/01/06 02:38:55;;;;;;;39.47;25.08;;;1.80;99.90;;;;;;5060137;28;20511;-74
2024/01/06 02:41:21;;;;;;;37.20;23.33;;;1.80;99.90;;;;;;5059737;28;20032;-73
2024/01/06 02:43:47;;;;;;;37.67;25.25;;;1.70;99.90;;;;;;5059686;28;20032;-73
2024/01/06 02:46:13;;;;;;;41.00;25.63;;;1.70;99.90;;;;;;5042885;28;20036;-73
2024/01/06 02:48:39;;;;;;;39.90;25.40;;;1.70;99.90;;;;;;5059592;28;20079;-72
2024/01/06 02:51:05;;;;;;;43.33;26.88;;;1.70;99.90;;;;;;5059486;28;20040;-73
2024/01/06 02:53:31;;;;;;;40.22;26.38;;;1.70;99.90;;;;;;5059482;28;20071;-73
2024/01/06 02:55:57;;;;;;;38.88;25.90;;;1.70;99.90;;;;;;5075850;28;20067;-73
2024/01/06 02:58:22;;;;;;;41.97;26.48;;;1.70;99.90;;;;;;5059529;28;20036;-73
2024/01/06 03:00:48;;;;;;;42.63;26.92;;;1.60;99.90;;;;;;5059262;28;20065;-73
2024/01/06 03:03:14;;;;;;;40.88;24.77;;;1.60;99.90;;;;;;5059231;28;20048;-73
2024/01/06 03:05:39;;;;;;;39.17;24.92;;;1.60;99.90;;;;;;5075443;28;20635;-73
2024/01/06 03:08:05;;;;;;;41.88;26.33;;;1.60;99.90;;;;;;5059138;28;20056;-73
2024/01/06 03:10:31;;;;;;;42.60;26.42;;;1.60;99.90;;;;;;5075653;28;20040;-74
2024/01/06 03:12:58;;;;;;;41.20;25.08;;;1.50;99.90;;;;;;5075702;28;20467;-73
2024/01/06 03:15:23;;;;;;;44.17;26.35;;;1.50;99.90;;;;;;5059417;28;20040;-73
2024/01/06 03:17:49;;;;;;;51.20;28.83;;;1.50;99.90;;;;;;5075545;28;20032;-73
2024/01/06 03:20:15;;;;;;;46.65;28.02;;;1.50;99.90;;;;;;5075323;28;20093;-73
2024/01/06 03:22:40;;;;;;;42.88;26.02;;;1.50;99.90;;;;;;5075508;28;20036;-73
2024/01/06 03:25:07;;;;;;;43.20;26.35;;;1.50;99.90;;;;;;5058871;28;20062;-73
2024/01/06 03:27:33;;;;;;;42.90;25.65;;;1.50;99.90;;;;;;5058829;28;20036;-73
2024/01/06 03:29:58;;;;;;;47.33;27.95;;;1.50;99.90;;;;;;5041923;28;20139;-73
2024/01/06 03:32:24;;;;;;;37.13;23.55;;;1.50;99.90;;;;;;5058866;28;20194;-73
2024/01/06 03:34:50;;;;;;;41.83;25.50;;;1.50;99.90;;;;;;5075224;28;20071;-73
2024/01/06 03:37:16;;;;;;;45.67;26.90;;;1.60;99.90;;;;;;5058605;28;20427;-73
2024/01/06 03:39:42;;;;;;;43.60;26.77;;;1.40;99.90;;;;;;5058270;28;20050;-73
2024/01/06 03:42:07;;;;;;;41.08;26.10;;;1.40;99.90;;;;;;5058698;28;20036;-73
2024/01/06 03:44:33;;;;;;;47.17;27.38;;;1.50;99.90;;;;;;5075364;28;20079;-73
2024/01/06 03:46:59;;;;;;;45.33;26.30;;;1.50;99.90;;;;;;5058438;28;20043;-73
2024/01/06 03:49:25;;;;;;;43.17;26.35;;;1.50;99.90;;;;;;5075136;28;20040;-67
2024/01/06 03:51:51;;;;;;;45.78;26.88;;;1.40;99.90;;;;;;5074916;28;20070;-67
2024/01/06 03:54:17;;;;;;;43.50;26.60;;;1.60;99.90;;;;;;5074901;28;20035;-67
2024/01/06 03:56:43;;;;;;;37.20;24.10;;;1.40;99.90;;;;;;5041905;28;20480;-67
2024/01/06 03:59:09;;;;;;;34.90;21.98;;;1.40;99.90;;;;;;5058153;28;20127;-67
2024/01/06 04:01:35;;;;;;;32.95;22.38;;;1.80;99.90;;;;;;5074960;28;20036;-68
2024/01/06 04:04:05;;;;;;;33.85;22.08;;;1.40;99.90;;;;;;5074780;28;20047;-68
2024/01/06 04:06:34;;;;;;;31.75;21.30;;;1.70;99.90;;;;;;5074886;28;20038;-67
2024/01/06 04:09:00;;;;;;;31.75;20.65;;;1.50;99.90;;;;;;5075098;28;20084;-67
2024/01/06 04:11:26;;;;;;;29.58;19.27;;;1.50;99.90;;;;;;5074804;28;20066;-67
2024/01/06 04:13:52;;;;;;;30.13;20.02;;;1.40;99.90;;;;;;5058053;28;20127;-67
2024/01/06 04:16:18;;;;;;;30.92;19.67;;;1.40;99.90;;;;;;5057978;28;20040;-67
2024/01/06 04:18:43;;;;;;;28.42;19.17;;;1.40;99.90;;;;;;5058072;28;20086;-67
2024/01/06 04:21:10;;;;;;;32.90;20.98;;;1.40;99.90;;;;;;5074689;28;20567;-67
2024/01/06 04:23:36;;;;;;;30.23;19.45;;;1.40;99.90;;;;;;5058258;28;20044;-67
2024/01/06 04:26:04;;;;;;;33.55;21.63;;;1.40;99.90;;;;;;5041326;28;20516;-68
2024/01/06 04:28:30;;;;;;;33.30;22.63;;;1.40;99.90;;;;;;5041841;28;20040;-68
2024/01/06 04:30:56;;;;;;;33.10;20.90;;;1.40;99.90;;;;;;5058601;28;20078;-67
2024/01/06 04:33:21;;;;;;;33.95;22.02;;;1.40;99.90;;;;;;5062193;28;20495;-67
2024/01/06 04:35:47;;;;;;;35.95;23.33;;;1.50;99.90;;;;;;5078934;28;20035;-68
2024/01/06 04:38:13;;;;;;;36.20;22.63;;;1.40;99.90;;;;;;5045355;28;20044;-67
2024/01/06 04:40:39;;;;;;;32.97;22.23;;;1.40;99.90;;;;;;5061942;28;20081;-67
2024/01/06 04:43:04;;;;;;;35.47;22.67;;;1.40;99.90;;;;;;5078687;28;20040;-67
2024/01/06 04:45:30;;;;;;;35.92;22.48;;;1.40;99.90;;;;;;5062117;28;20036;-68
2024/01/06 04:47:56;;;;;;;33.25;22.05;;;1.40;99.90;;;;;;5078647;28;20085;-68
2024/01/06 04:50:22;;;;;;;32.72;21.98;;;1.40;99.90;;;;;;5061832;28;20159;-67
2024/01/06 04:52:48;;;;;;;30.33;20.60;;;1.30;99.90;;;;;;5062152;28;20559;-67
2024/01/06 04:55:14;;;;;;;31.65;21.55;;;1.30;99.90;;;;;;5078310;28;20047;-67
2024/01/06 04:57:39;;;;;;;32.38;21.50;;;1.30;99.90;;;;;;5061583;28;20096;-67
2024/01/06 05:00:06;;;;;;;31.30;21.65;;;1.30;99.90;;;;;;5078263;28;20156;-73
2024/01/06 05:02:31;;;;;;;30.92;20.45;;;1.30;99.90;;;;;;5077933;28;20127;-72
2024/01/06 05:04:57;;;;;;;33.72;22.00;;;1.30;99.90;;;;;;5061366;28;20151;-72
2024/01/06 05:07:24;;;;;;;31.60;21.58;;;1.30;99.90;;;;;;5061868;28;20044;-73
2024/01/06 05:09:50;;;;;;;30.40;20.98;;;1.30;99.90;;;;;;5077987;28;20102;-72
2024/01/06 05:12:16;;;;;;;32.58;21.58;;;1.30;99.90;;;;;;5044963;28;20036;-72
2024/01/06 05:14:41;;;;;;;32.88;21.60;;;1.30;99.90;;;;;;5077696;28;20065;-73
2024/01/06 05:17:08;;;;;;;34.55;20.80;;;1.40;99.90;;;;;;5061357;28;20053;-67
2024/01/06 05:19:35;;;;;;;33.85;21.05;;;1.30;99.90;;;;;;5077602;28;20044;-68
2024/01/06 05:22:00;;;;;;;35.63;22.17;;;1.20;99.90;;;;;;5077828;28;20044;-67
2024/01/06 05:24:26;;;;;;;36.38;22.25;;;1.30;99.90;;;;;;5061466;28;20093;-67
2024/01/06 05:26:52;;;;;;;34.83;21.25;;;1.30;99.90;;;;;;5077580;28;20039;-67
2024/01/06 05:29:17;;;;;;;34.35;21.90;;;1.20;99.90;;;;;;5061068;28;20044;-67
2024/01/06 05:31:43;;;;;;;36.30;21.77;;;1.30;99.90;;;;;;5044529;28;20039;-67
2024/01/06 05:34:09;;;;;;;37.70;22.10;;;1.20;99.90;;;;;;5061334;28;20036;-67
2024/01/06 05:36:35;;;;;;;40.72;23.38;;;1.20;99.90;;;;;;5077462;28;20039;-68
2024/01/06 05:39:00;;;;;;;46.70;26.05;;;1.30;99.90;;;;;;5077385;28;20105;-67
2024/01/06 05:41:26;;;;;;;37.88;23.13;;;1.30;99.90;;;;;;5077547;28;20098;-67
2024/01/06 05:43:52;;;;;;;37.95;23.00;;;1.20;99.90;;;;;;5077559;28;20400;-67
2024/01/06 05:46:22;;;;;;;38.45;23.25;;;1.40;99.90;;;;;;5077408;28;20050;-67
2024/01/06 05:48:48;;;;;;;34.78;22.05;;;1.30;99.90;;;;;;5077416;28;20050;-67
2024/01/06 05:51:14;;;;;;;37.20;22.52;;;1.20;99.90;;;;;;5060690;28;20036;-67
2024/01/06 05:53:41;;;;;;;38.92;22.88;;;1.20;99.90;;;;;;5044243;28;20036;-67
2024/01/06 05:56:08;;;;;;;41.75;23.50;;;1.20;99.90;;;;;;5060267;28;20107;-67
2024/01/06 05:58:34;;;;;;;42.50;24.15;;;1.20;99.90;;;;;;5077210;28;20048;-67
2024/01/06 06:01:00;;;;;;;42.28;24.25;;;1.20;99.90;;;;;;5077173;28;20036;-67
2024/01/06 06:03:26;;;;;;;41.47;23.50;;;1.20;99.90;;;;;;5077054;28;20039;-67
2024/01/06 06:05:52;;;;;;;37.97;23.42;;;1.20;99.90;;;;;;5060259;28;20048;-67
2024/01/06 06:08:18;;;;;;;38.47;22.63;;;1.20;99.90;;;;;;5077072;28;20138;-72
2024/01/06 06:11:04;;;;;;;37.30;22.35;;;1.20;99.90;;;;;;5060662;28;20123;-73
2024/01/06 06:13:31;;;;;;;39.67;23.50;;;1.20;99.90;;;;;;5060570;28;20100;-73
2024/01/06 06:15:57;;;;;;;39.08;22.38;;;1.10;99.90;;;;;;5076697;28;20068;-73
2024/01/06 06:18:23;;;;;;;43.17;25.17;;;1.10;99.90;;;;;;5076869;28;20189;-73
2024/01/06 06:20:49;;;;;;;40.10;25.80;;;1.10;99.90;;;;;;5076686;28;20139;-73
2024/01/06 06:23:15;;;;;;;42.25;26.20;;;1.10;99.90;;;;;;5076707;28;20136;-72
2024/01/06 06:25:40;;;;;;;41.45;25.02;;;1.10;99.90;;;;;;5060047;28;20093;-72
2024/01/06 06:28:06;;;;;;;39.83;24.77;;;1.10;99.90;;;;;;5060295;28;20035;-72
2024/01/06 06:30:32;;;;;;;41.67;25.98;;;1.10;99.90;;;;;;5060063;28;20177;-74
2024/01/06 06:32:58;;;;;;;46.88;28.92;;;1.10;99.90;;;;;;5060214;28;20499;-73
2024/01/06 06:35:25;;;;;;;45.25;28.15;;;1.10;99.90;;;;;;5076473;28;20044;-73
2024/01/06 06:37:51;;;;;;;49.38;31.52;;;1.10;99.90;;;;;;5076753;28;20515;-73
2024/01/06 06:40:17;;;;;;;44.33;25.08;;;1.00;99.90;;;;;;5076341;28;20040;-72
2024/01/06 06:42:43;;;;;;;44.20;28.05;;;1.10;99.90;;;;;;5076223;28;20119;-73
2024/01/06 06:45:11;;;;;;;47.00;29.30;;;1.10;99.90;;;;;;5076194;28;20407;-72
2024/01/06 06:47:37;;;;;;;48.67;30.20;;;1.10;99.90;;;;;;5043188;28;20071;-72
2024/01/06 06:50:03;;;;;;;50.53;34.83;;;1.00;99.90;;;;;;5059833;28;20466;-73
2024/01/06 06:52:29;;;;;;;60.17;40.55;;;1.00;99.90;;;;;;5076237;28;20503;-71
2024/01/06 06:54:55;;;;;;;69.05;37.60;;;1.00;99.90;;;;;;5075530;28;20039;-73
2024/01/06 06:57:21;;;;;;;129.95;71.25;;;1.00;99.90;;;;;;5059560;28;20051;-72
2024/01/06 06:59:46;;;;;;;95.85;52.25;;;1.00;99.90;;;;;;5059537;28;20066;-72
2024/01/06 07:02:12;;;;;;;71.28;39.28;;;1.00;99.90;;;;;;5042760;28;20032;-72
2024/01/06 07:04:38;;;;;;;140.68;71.68;;;1.00;99.90;;;;;;5075684;28;20052;-72
2024/01/06 07:07:04;;;;;;;169.02;89.95;;;0.90;99.90;;;;;;5075995;28;20484;-72
2024/01/06 07:09:30;;;;;;;110.72;68.43;;;1.00;99.90;;;;;;5059536;28;20496;-72
2024/01/06 07:11:55;;;;;;;70.07;52.83;;;1.00;99.90;;;;;;5059139;28;20047;-72
2024/01/06 07:14:21;;;;;;;44.95;33.22;;;1.00;99.90;;;;;;5076046;28;20043;-72
2024/01/06 07:16:47;;;;;;;46.58;33.25;;;1.00;99.90;;;;;;5059201;28;20392;-73
2024/01/06 07:19:13;;;;;;;31.83;20.45;;;1.00;99.90;;;;;;5059273;28;20040;-67
2024/01/06 07:21:38;;;;;;;35.53;23.08;;;1.00;99.90;;;;;;5058829;28;20039;-68
2024/01/06 07:24:04;;;;;;;33.85;21.00;;;1.00;99.90;;;;;;5059038;28;20078;-68
2024/01/06 07:26:33;;;;;;;34.85;22.20;;;0.90;99.90;;;;;;5058891;28;20551;-68
2024/01/06 07:28:59;;;;;;;32.92;22.25;;;0.90;99.90;;;;;;5058941;28;20048;-68
2024/01/06 07:31:24;;;;;;;36.20;22.73;;;1.00;99.90;;;;;;5042395;28;20040;-68
2024/01/06 07:33:50;;;;;;;31.75;21.02;;;1.00;99.90;;;;;;5058731;28;20127;-67
2024/01/06 07:36:17;;;;;;;35.50;25.40;;;0.90;99.90;;;;;;5075524;28;20040;-68
2024/01/06 07:38:44;;;;;;;35.75;24.48;;;1.20;99.90;;;;;;5075448;28;20504;-68
2024/01/06 07:41:10;;;;;;;39.03;26.80;;;1.00;99.90;;;;;;5075428;28;20069;-68
2024/01/06 07:43:36;;;;;;;36.97;24.85;;;1.00;99.90;;;;;;5058635;28;20087;-68
2024/01/06 07:46:03;;;;;;;34.03;22.35;;;1.00;99.90;;;;;;5075185;28;20138;-68
2024/01/06 07:48:29;;;;;;;28.30;20.23;;;1.00;99.90;;;;;;5042171;28;20036;-67
2024/01/06 07:50:55;;;;;;;32.55;23.00;;;1.00;99.90;;;;;;5075184;28;20043;-68
2024/01/06 07:53:21;;;;;;;32.08;22.48;;;1.00;99.90;;;;;;5074968;28;20040;-68
2024/01/06 07:55:47;;;;;;;32.85;23.00;;;1.00;99.90;;;;;;5058437;28;20040;-68
2024/01/06 07:58:13;;;;;;;33.22;22.90;;;1.00;99.90;;;;;;5041929;28;20047;-68
2024/01/06 08:00:39;;;;;;;32.60;22.25;;;1.00;99.90;;;;;;5075041;28;20048;-67
2024/01/06 08:03:05;;;;;;;34.15;23.48;;;1.00;99.90;;;;;;5057864;28;20040;-67
2024/01/06 08:05:32;;;;;;;32.88;22.52;;;1.00;99.90;;;;;;5073840;28;20480;-67
2024/01/06 08:07:57;;;;;;;36.05;23.30;;;1.00;99.90;;;;;;5092954;28;20063;-67
2024/01/06 08:10:23;;;;;;;34.15;23.63;;;1.00;99.90;;;;;;5058167;28;20040;-68
2024/01/06 08:12:49;;;;;;;36.30;24.17;;;1.00;99.90;;;;;;5074781;28;20491;-68
2024/01/06 08:15:15;;;;;;;35.15;23.02;;;1.10;99.90;;;;;;5058101;28;20040;-67
2024/01/06 08:17:41;;;;;;;32.45;22.80;;;1.00;99.90;;;;;;5074933;28;20396;-68
2024/01/06 08:20:08;;;;;;;34.92;23.27;;;1.00;99.90;;;;;;5058133;28;20036;-68
2024/01/06 08:22:34;;;;;;;33.88;24.23;;;1.00;99.90;;;;;;5074819;28;20070;-67
2024/01/06 08:24:59;;;;;;;32.20;22.55;;;1.00;99.90;;;;;;5058119;28;20067;-67
2024/01/06 08:27:25;;;;;;;33.67;23.20;;;1.10;99.90;;;;;;5074675;28;20461;-68
2024/01/06 08:29:51;;;;;;;31.05;22.20;;;1.00;99.90;;;;;;5058143;28;20040;-68
2024/01/06 08:32:17;;;;;;;30.88;21.80;;;1.00;99.90;;;;;;5075007;28;20442;-67
2024/01/06 08:34:42;;;;;;;31.60;22.42;;;1.00;99.90;;;;;;5074584;28;20040;-67
2024/01/06 08:37:08;;;;;;;34.28;25.38;;;1.00;99.90;;;;;;5057977;28;20083;-67
2024/01/06 08:39:34;;;;;;;35.10;23.80;;;1.00;99.90;;;;;;5074441;28;20516;-68
2024/01/06 08:42:00;;;;;;;33.58;23.70;;;1.10;99.90;;;;;;5058150;28;20043;-67
2024/01/06 08:44:25;;;;;;;30.08;21.48;;;1.00;99.90;;;;;;5074472;28;20119;-66
2024/01/06 08:46:51;;;;;;;31.60;23.20;;;1.00;99.90;;;;;;5057793;28;20032;-67
2024/01/06 08:49:17;;;;;;;30.38;21.80;;;1.00;99.90;;;;;;5057797;28;20076;-67
2024/01/06 08:51:43;;;;;;;29.02;21.88;;;1.00;99.90;;;;;;5074611;28;20083;-67
2024/01/06 08:54:09;;;;;;;29.67;21.88;;;1.00;99.90;;;;;;5057722;28;20044;-68
2024/01/06 08:56:35;;;;;;;29.48;21.40;;;1.10;99.90;;;;;;5074483;28;20123;-67
2024/01/06 08:59:01;;;;;;;28.10;20.33;;;1.10;99.90;;;;;;5057894;28;20050;-67
2024/01/06 09:01:27;;;;;;;28.10;20.38;;;1.10;99.90;;;;;;5057621;28;20062;-67
2024/01/06 09:03:53;;;;;;;28.85;21.17;;;1.10;99.90;;;;;;5057939;28;20040;-67
2024/01/06 09:06:18;;;;;;;29.48;21.05;;;1.10;99.90;;;;;;5057559;28;20056;-67
2024/01/06 09:08:44;;;;;;;30.27;22.33;;;1.10;99.90;;;;;;5074007;28;20032;-67
2024/01/06 09:11:10;;;;;;;29.25;20.85;;;1.10;99.90;;;;;;5074561;28;20189;-68
2024/01/06 09:13:36;;;;;;;28.35;20.42;;;1.10;99.90;;;;;;5057540;28;20089;-67
2024/01/06 09:16:01;;;;;;;25.05;18.27;;;1.20;99.90;;;;;;5074044;28;20040;-67
2024/01/06 09:18:27;;;;;;;25.58;19.67;;;1.10;99.90;;;;;;5077118;28;20139;-67
2024/01/06 09:20:53;;;;;;;25.08;18.92;;;1.10;99.90;;;;;;5061226;28;20073;-67
2024/01/06 09:23:20;;;;;;;25.88;19.40;;;1.20;99.90;;;;;;5077973;28;20043;-68
2024/01/06 09:25:49;;;;;;;24.38;18.63;;;1.40;99.90;;;;;;5078070;28;20065;-67
2024/01/06 09:28:15;;;;;;;26.13;20.02;;;1.20;99.90;;;;;;5077834;28;20044;-67
2024/01/06 09:30:41;;;;;;;26.45;19.88;;;1.20;99.90;;;;;;5077720;28;20044;-66
2024/01/06 09:33:08;;;;;;;26.67;19.73;;;1.20;99.90;;;;;;5077943;28;20196;-67
2024/01/06 09:35:34;;;;;;;26.35;20.65;;;1.20;99.90;;;;;;5060867;28;20082;-67
2024/01/06 09:38:01;;;;;;;24.80;18.30;;;1.20;99.90;;;;;;5077562;28;20048;-67
2024/01/06 09:40:30;;;;;;;26.92;20.80;;;1.20;99.90;;;;;;5077695;28;20124;-67
2024/01/06 09:42:55;;;;;;;25.92;20.02;;;1.20;99.90;;;;;;5077536;28;20048;-66
2024/01/06 09:45:21;;;;;;;33.65;24.50;;;1.20;99.90;;;;;;5060797;28;20552;-67
2024/01/06 09:47:50;;;;;;;64.97;45.58;;;1.20;99.90;;;;;;5077294;28;20036;-67
2024/01/06 09:50:21;;;;;;;44.83;35.38;;;1.30;99.90;;;;;;5077477;28;20039;-67
2024/01/06 09:52:56;;;;;;;29.95;22.55;;;1.20;99.90;;;;;;5095472;28;20039;-67
2024/01/06 09:55:26;;;;;;;32.15;25.23;;;1.20;99.90;;;;;;5077467;28;20040;-67
2024/01/06 09:57:53;;;;;;;27.83;20.27;;;1.20;99.90;;;;;;5060471;28;20040;-68
2024/01/06 10:00:20;;;;;;;26.88;20.65;;;1.20;99.90;;;;;;5077044;28;20040;-66
2024/01/06 10:02:48;;;;;;;25.98;19.60;;;1.20;99.90;;;;;;5077382;28;20044;-66
2024/01/06 10:05:16;;;;;;;27.80;20.15;;;1.20;99.90;;;;;;5077304;28;20048;-67
2024/01/06 10:07:45;;;;;;;26.58;21.17;;;1.30;99.90;;;;;;5043767;28;20048;-66
2024/01/06 10:10:12;;;;;;;25.17;18.90;;;1.20;99.90;;;;;;5044076;28;20048;-66
2024/01/06 10:12:41;;;;;;;25.05;19.65;;;1.20;99.90;;;;;;5077018;28;20036;-67
2024/01/06 10:15:08;;;;;;;29.75;22.67;;;1.30;99.90;;;;;;5076964;28;20040;-67
2024/01/06 10:17:43;;;;;;;28.70;20.80;;;1.10;99.90;;;;;;5076792;28;20140;-67
2024/01/06 10:20:13;;;;;;;27.35;20.98;;;1.10;99.90;;;;;;5076714;28;20044;-67
2024/01/06 10:22:42;;;;;;;26.40;20.65;;;1.10;99.90;;;;;;5076749;28;20044;-67
2024/01/06 10:25:10;;;;;;;25.77;19.63;;;1.20;99.90;;;;;;5077056;28;20144;-67
2024/01/06 10:27:41;;;;;;;29.00;20.98;;;1.20;99.90;;;;;;5060013;28;20036;-67
2024/01/06 10:30:08;;;;;;;28.80;22.52;;;1.20;99.90;;;;;;5075557;28;20082;-67
2024/01/06 10:32:36;;;;;;;26.23;20.73;;;1.30;99.90;;;;;;5076741;28;20043;-67
2024/01/06 10:35:03;;;;;;;29.00;22.10;;;1.30;99.90;;;;;;5044018;28;20047;-67
2024/01/06 10:37:32;;;;;;;28.65;21.90;;;1.20;99.90;;;;;;5059833;28;20136;-67
2024/01/06 10:40:12;;;;;;;26.35;20.20;;;1.20;99.90;;;;;;5076355;28;20097;-67
2024/01/06 10:42:41;;;;;;;26.58;20.27;;;1.20;99.90;;;;;;5059634;28;20038;-67
2024/01/06 10:45:09;;;;;;;28.17;21.15;;;1.20;99.90;;;;;;5060613;28;20522;-67
2024/01/06 10:47:36;;;;;;;27.45;21.70;;;1.20;99.90;;;;;;5076222;28;20028;-68
2024/01/06 10:50:03;;;;;;;37.92;28.55;;;1.20;99.90;;;;;;5076374;28;20086;-72
2024/01/06 10:52:29;;;;;;;25.50;19.30;;;1.30;99.90;;;;;;5075909;28;20123;-71
2024/01/06 10:54:56;;;;;;;37.88;29.52;;;1.20;99.90;;;;;;5076497;28;20044;-73
2024/01/06 10:57:23;;;;;;;28.60;22.90;;;1.20;99.90;;;;;;5059375;28;20032;-72
2024/01/06 10:59:52;;;;;;;32.60;26.67;;;1.20;99.90;;;;;;5075858;28;20044;-72
2024/01/06 11:02:19;;;;;;;26.98;21.63;;;1.20;99.90;;;;;;5042811;28;20111;-73
2024/01/06 11:04:50;;;;;;;23.45;17.35;;;1.20;99.90;;;;;;5076109;28;20043;-73
2024/01/06 11:07:18;;;;;;;26.45;19.85;;;1.30;99.90;;;;;;5075815;28;20089;-73
2024/01/06 11:10:02;;;;;;;26.05;19.23;;;1.30;99.90;;;;;;5092687;28;20043;-72
2024/01/06 11:12:28;;;;;;;28.58;20.70;;;1.20;99.90;;;;;;5075806;28;20093;-72
2024/01/06 11:14:54;;;;;;;25.52;19.77;;;1.20;99.90;;;;;;5042575;28;20083;-73
2024/01/06 11:17:58;;;;;;;26.15;19.15;;;1.20;99.90;;;;;;5075631;28;20071;-73
2024/01/06 11:20:27;;;;;;;27.42;19.77;;;1.20;99.90;;;;;;5075531;28;20093;-72
2024/01/06 11:22:53;;;;;;;26.17;19.58;;;1.20;99.90;;;;;;5075346;28;20083;-72
2024/01/06 11:25:21;;;;;;;27.55;20.55;;;1.20;99.90;;;;;;5075758;28;20040;-73
2024/01/06 11:27:48;;;;;;;26.60;21.17;;;1.20;99.90;;;;;;5058881;28;20032;-73
2024/01/06 11:30:25;;;;;;;27.02;20.38;;;1.20;99.90;;;;;;5075419;28;20048;-72
2024/01/06 11:32:53;;;;;;;28.77;21.65;;;1.20;99.90;;;;;;5059234;28;20516;-71
2024/01/06 11:35:21;;;;;;;23.33;16.63;;;1.20;99.90;;;;;;5059162;28;20039;-71
2024/01/06 11:37:46;;;;;;;28.35;22.30;;;1.20;99.90;;;;;;5041959;28;20040;-71
2024/01/06 11:40:15;;;;;;;26.27;18.58;;;1.20;99.90;;;;;;5074950;28;20051;-72
2024/01/06 11:42:45;;;;;;;26.65;21.23;;;1.20;99.90;;;;;;5058610;28;20127;-71
2024/01/06 11:45:13;;;;;;;27.65;20.50;;;1.20;99.90;;;;;;5058420;28;20032;-71
2024/01/06 11:47:39;;;;;;;27.95;21.58;;;1.30;99.90;;;;;;5075685;28;20052;-72
2024/01/06 11:50:05;;;;;;;27.10;21.60;;;1.20;99.90;;;;;;5058536;28;20044;-71
2024/01/06 11:52:33;;;;;;;51.50;37.65;;;1.20;99.90;;;;;;5075037;28;20508;-73
2024/01/06 11:54:59;;;;;;;30.77;24.13;;;1.40;99.90;;;;;;5058649;28;20116;-71
2024/01/06 11:57:29;;;;;;;31.58;24.08;;;1.20;99.90;;;;;;5075203;28;20048;-72
2024/01/06 11:59:55;;;;;;;26.67;21.00;;;1.20;99.90;;;;;;5058341;28;20044;-66
2024/01/06 12:02:22;;;;;;;26.35;19.52;;;1.20;99.90;;;;;;5058707;28;20040;-68
2024/01/06 12:04:52;;;;;;;26.80;21.05;;;1.20;99.90;;;;;;5041876;28;20036;-68
2024/01/06 12:07:19;;;;;;;26.52;19.52;;;1.30;99.90;;;;;;5075198;28;20047;-68
2024/01/06 12:09:49;;;;;;;26.17;20.45;;;1.20;99.90;;;;;;5074967;28;20055;-68
2024/01/06 12:12:18;;;;;;;29.02;21.48;;;1.20;99.90;;;;;;5074648;28;20048;-67
2024/01/06 12:14:45;;;;;;;33.83;24.00;;;1.30;99.90;;;;;;5075069;28;20606;-67
2024/01/06 12:17:13;;;;;;;43.55;33.92;;;1.30;99.90;;;;;;5041728;28;20040;-68
2024/01/06 12:19:41;;;;;;;31.50;24.13;;;1.30;99.90;;;;;;5058109;28;20492;-67
2024/01/06 12:22:09;;;;;;;27.48;21.90;;;1.20;99.90;;;;;;5074736;28;20067;-68
2024/01/06 12:24:36;;;;;;;24.15;18.10;;;1.30;99.90;;;;;;5074703;28;20044;-68
2024/01/06 12:27:01;;;;;;;26.60;21.58;;;1.30;99.90;;;;;;5057897;28;20094;-69
2024/01/06 12:29:31;;;;;;;36.40;28.10;;;1.30;99.90;;;;;;5074423;28;20048;-67
2024/01/06 12:32:00;;;;;;;29.25;23.27;;;1.30;99.90;;;;;;5057948;28;20113;-67